Time;durP1;ratioP1;P1;durP2;ratioP2;P2;SDS_P1;SDS_P2;PMS_P1;PMS_P2;Temp;Humidity;BMP_temperature;BMP_pressure;BME280_temperature;BME280_humidity;BME280_pressure;Samples;Min_cycle;Max_cycle;Signal;HPM_P1;HPM_P2
2022/01/21 00:01:02;;;;;;;3.05;1.60;;;16.10;44.40;;;;;;5115764;28;20466;-58
2022/01/21 00:03:29;;;;;;;2.38;1.20;;;16.10;44.50;;;;;;5116141;28;20069;-58
2022/01/21 00:05:56;;;;;;;3.05;1.20;;;16.00;44.40;;;;;;5115982;28;20019;-58
2022/01/21 00:08:24;;;;;;;3.05;1.13;;;16.10;44.50;;;;;;5116556;28;20047;-58
2022/01/21 00:10:53;;;;;;;2.88;1.23;;;16.00;44.50;;;;;;5115833;28;20141;-57
2022/01/21 00:13:37;;;;;;;2.90;1.15;;;16.00;44.50;;;;;;5113981;28;20020;-58
2022/01/21 00:16:22;;;;;;;2.85;1.42;;;16.00;44.50;;;;;;5115770;28;20053;-58
2022/01/21 00:18:58;;;;;;;3.10;1.20;;;16.00;44.50;;;;;;5115967;28;20011;-57
2022/01/21 00:32:22;;;;;;;3.50;1.40;;;16.00;44.60;;;;;;5115981;28;20543;-57
2022/01/21 00:34:48;;;;;;;2.70;1.40;;;16.00;44.60;;;;;;5115596;28;20378;-58
2022/01/21 00:37:14;;;;;;;2.22;1.20;;;16.00;44.70;;;;;;5116121;28;20381;-58
2022/01/21 00:39:41;;;;;;;2.33;1.30;;;16.00;44.70;;;;;;5097581;28;20543;-57
2022/01/21 00:42:15;;;;;;;4.13;1.35;;;16.00;44.70;;;;;;5115611;28;20437;-57
2022/01/21 00:44:40;;;;;;;2.78;1.35;;;15.90;44.60;;;;;;5115362;28;20422;-57
2022/01/21 00:47:07;;;;;;;2.55;1.30;;;15.90;44.60;;;;;;5115416;28;20020;-57
2022/01/21 00:49:34;;;;;;;4.40;1.25;;;15.90;44.70;;;;;;5097379;28;20047;-58
2022/01/21 00:51:59;;;;;;;2.70;1.10;;;15.90;44.70;;;;;;5115250;28;20039;-57
2022/01/21 00:54:25;;;;;;;3.00;1.30;;;15.90;44.70;;;;;;5097154;28;20378;-55
2022/01/21 00:56:51;;;;;;;3.97;1.08;;;15.90;44.70;;;;;;5115248;28;20458;-56
2022/01/21 00:59:17;;;;;;;2.15;1.05;;;15.90;44.70;;;;;;5114505;28;20439;-55
2022/01/21 01:01:43;;;;;;;3.65;1.30;;;15.90;44.70;;;;;;5096873;28;20149;-56
2022/01/21 01:04:10;;;;;;;3.38;1.40;;;15.90;44.70;;;;;;5114940;28;20031;-56
2022/01/21 01:06:36;;;;;;;3.40;1.27;;;15.90;44.80;;;;;;5114810;28;20381;-57
2022/01/21 01:09:02;;;;;;;2.58;1.30;;;15.90;44.70;;;;;;5114458;28;20032;-54
2022/01/21 01:11:53;;;;;;;2.75;1.35;;;15.90;44.70;;;;;;5115252;28;20034;-54
2022/01/21 01:20:02;;;;;;;1.88;0.98;;;15.90;44.80;;;;;;5099317;28;20121;-55
2022/01/21 01:23:23;;;;;;;1.60;0.88;;;15.80;44.80;;;;;;5114576;28;20385;-56
2022/01/21 01:28:05;;;;;;;2.65;1.48;;;15.80;44.80;;;;;;5098910;28;20039;-55
2022/01/21 01:30:31;;;;;;;3.08;1.17;;;15.80;44.80;;;;;;5114431;28;20015;-57
2022/01/21 01:33:23;;;;;;;2.28;1.23;;;15.80;44.80;;;;;;5114300;28;20024;-55
2022/01/21 01:35:50;;;;;;;2.83;1.10;;;15.80;44.80;;;;;;5114762;28;20016;-55
2022/01/21 01:40:59;;;;;;;2.03;1.10;;;15.80;44.80;;;;;;5114154;28;20020;-54
2022/01/21 01:51:23;;;;;;;2.25;1.13;;;15.80;44.90;;;;;;5114645;28;20504;-56
2022/01/21 01:53:54;;;;;;;2.00;1.20;;;15.80;44.90;;;;;;5114503;28;20008;-55
2022/01/21 01:56:24;;;;;;;2.05;1.30;;;15.80;44.90;;;;;;5114413;28;20557;-56
2022/01/21 01:58:50;;;;;;;3.63;1.30;;;15.80;44.90;;;;;;5114538;28;20020;-57
2022/01/21 02:01:17;;;;;;;1.95;1.20;;;15.80;44.90;;;;;;5114141;28;20382;-55
2022/01/21 02:03:43;;;;;;;3.83;1.30;;;15.80;44.90;;;;;;5114406;28;20458;-55
2022/01/21 02:06:09;;;;;;;3.38;1.52;;;15.80;44.90;;;;;;5113971;28;20019;-54
2022/01/21 02:08:35;;;;;;;3.28;1.40;;;15.80;44.90;;;;;;5113675;28;20043;-56
2022/01/21 02:11:01;;;;;;;2.47;1.20;;;15.90;44.80;;;;;;5113690;28;20072;-56
2022/01/21 02:13:31;;;;;;;3.72;1.25;;;16.00;44.50;;;;;;5113674;28;20466;-55
2022/01/21 02:16:01;;;;;;;6.38;1.60;;;16.00;44.30;;;;;;5095963;28;20509;-56
2022/01/21 02:21:34;;;;;;;3.60;1.25;;;16.20;44.10;;;;;;5113857;28;20081;-56
2022/01/21 02:24:02;;;;;;;2.85;1.10;;;16.20;43.90;;;;;;5113536;28;20016;-56
2022/01/21 02:26:28;;;;;;;1.92;0.93;;;16.30;43.80;;;;;;5113544;28;20011;-57
2022/01/21 02:29:25;;;;;;;1.73;1.00;;;16.40;43.70;;;;;;5113036;28;20038;-57
2022/01/21 02:31:51;;;;;;;2.35;1.13;;;16.40;43.40;;;;;;5113488;28;20057;-55
2022/01/21 02:34:18;;;;;;;4.38;1.20;;;16.50;43.30;;;;;;5113590;28;20042;-55
2022/01/21 02:36:43;;;;;;;4.30;1.15;;;16.60;43.10;;;;;;5113495;28;20067;-57
2022/01/21 02:39:24;;;;;;;2.38;1.08;;;16.70;43.10;;;;;;5113565;28;20034;-56
2022/01/21 02:41:49;;;;;;;2.35;1.30;;;16.80;42.90;;;;;;5113388;28;20012;-56
2022/01/21 02:44:17;;;;;;;1.40;0.93;;;16.80;42.70;;;;;;5113563;28;20545;-57
2022/01/21 02:46:43;;;;;;;2.33;1.00;;;17.00;42.60;;;;;;5113363;28;20038;-56
2022/01/21 02:49:10;;;;;;;1.88;1.10;;;17.00;42.30;;;;;;5113253;28;20050;-56
2022/01/21 02:51:36;;;;;;;3.95;1.30;;;17.10;42.10;;;;;;5113021;28;20473;-54
2022/01/21 02:54:05;;;;;;;2.85;1.10;;;17.20;42.00;;;;;;5112985;28;20029;-56
2022/01/21 02:56:35;;;;;;;2.75;1.08;;;17.30;41.80;;;;;;5095224;28;20466;-54
2022/01/21 02:59:01;;;;;;;2.30;1.20;;;17.30;41.60;;;;;;5113365;28;20015;-56
2022/01/21 03:01:26;;;;;;;2.85;1.25;;;17.40;41.50;;;;;;5113047;28;20292;-55
2022/01/21 03:03:52;;;;;;;1.98;1.10;;;17.40;41.40;;;;;;5113069;28;20020;-54
2022/01/21 03:06:20;;;;;;;2.13;1.00;;;17.60;41.40;;;;;;5113504;28;20015;-54
2022/01/21 03:08:46;;;;;;;2.15;1.08;;;17.60;41.20;;;;;;5112741;28;20047;-55
2022/01/21 03:11:13;;;;;;;2.47;1.15;;;17.70;41.10;;;;;;5112966;28;20004;-55
2022/01/21 03:13:40;;;;;;;1.85;0.90;;;17.70;41.00;;;;;;5112936;28;20016;-57
2022/01/21 03:16:06;;;;;;;2.17;0.90;;;17.70;41.00;;;;;;5112988;28;20473;-58
2022/01/21 03:18:32;;;;;;;1.70;1.00;;;17.70;40.90;;;;;;5112978;28;20480;-57
2022/01/21 03:20:58;;;;;;;2.45;1.00;;;17.80;41.00;;;;;;5113334;28;20012;-56
2022/01/21 03:23:26;;;;;;;1.95;0.98;;;17.90;40.80;;;;;;5098728;28;20105;-57
2022/01/21 03:25:52;;;;;;;2.20;1.00;;;17.90;40.80;;;;;;5082430;28;20545;-56
2022/01/21 03:28:18;;;;;;;2.53;1.20;;;17.90;40.70;;;;;;5116700;28;20112;-57
2022/01/21 03:30:44;;;;;;;2.00;1.23;;;17.90;40.70;;;;;;5116724;28;20493;-57
2022/01/21 03:33:10;;;;;;;1.88;0.98;;;18.00;40.60;;;;;;5098168;28;20020;-56
2022/01/21 03:35:35;;;;;;;7.25;1.20;;;18.00;40.60;;;;;;5116817;28;20012;-59
2022/01/21 03:38:01;;;;;;;2.42;0.95;;;18.00;40.60;;;;;;5116581;28;20015;-58
2022/01/21 03:40:27;;;;;;;3.33;1.20;;;18.10;40.50;;;;;;5116816;28;20446;-59
2022/01/21 03:42:53;;;;;;;2.45;1.10;;;18.10;40.50;;;;;;5098224;28;20538;-58
2022/01/21 03:45:20;;;;;;;2.15;1.00;;;18.10;40.50;;;;;;5116474;28;20450;-58
2022/01/21 03:47:46;;;;;;;3.40;1.08;;;18.10;40.50;;;;;;5097952;28;20493;-58
2022/01/21 03:52:47;;;;;;;2.83;1.20;;;18.20;40.40;;;;;;5116801;28;20102;-59
2022/01/21 03:55:13;;;;;;;1.25;0.70;;;18.20;40.30;;;;;;5116431;28;20462;-58
2022/01/21 03:57:39;;;;;;;1.70;1.00;;;18.20;40.40;;;;;;5098254;28;20022;-57
2022/01/21 04:00:07;;;;;;;2.58;1.17;;;18.20;40.40;;;;;;5115761;28;20043;-58
2022/01/21 04:02:34;;;;;;;3.17;1.23;;;18.20;40.30;;;;;;5115632;28;20023;-58
2022/01/21 04:05:00;;;;;;;1.40;0.93;;;18.20;40.30;;;;;;5115887;28;20015;-58
2022/01/21 04:07:26;;;;;;;1.42;0.90;;;18.30;40.20;;;;;;5115771;28;20513;-58
2022/01/21 04:09:51;;;;;;;2.33;0.98;;;18.30;40.20;;;;;;5097571;28;20020;-58
2022/01/21 04:12:17;;;;;;;2.10;1.17;;;18.40;40.20;;;;;;5115648;28;20030;-58
2022/01/21 04:14:43;;;;;;;3.40;1.08;;;18.40;40.10;;;;;;5115887;28;20466;-58
2022/01/21 04:17:09;;;;;;;2.15;0.90;;;18.50;40.00;;;;;;5115733;28;20019;-58
2022/01/21 04:19:35;;;;;;;2.00;0.93;;;18.50;39.90;;;;;;5115714;28;20016;-58
2022/01/21 04:22:02;;;;;;;1.63;0.90;;;18.60;39.80;;;;;;5097488;28;20016;-57
2022/01/21 04:24:28;;;;;;;1.52;1.00;;;18.60;39.70;;;;;;5115392;28;20092;-58
2022/01/21 04:26:54;;;;;;;1.77;0.85;;;18.60;39.60;;;;;;5115534;28;20016;-58
2022/01/21 04:29:20;;;;;;;1.77;1.00;;;18.70;39.60;;;;;;5097419;28;20028;-58
2022/01/21 04:31:46;;;;;;;2.85;1.10;;;18.80;39.50;;;;;;5115492;28;20011;-58
2022/01/21 04:34:12;;;;;;;2.05;1.05;;;18.80;39.40;;;;;;5096880;28;20546;-58
2022/01/21 04:36:37;;;;;;;1.70;0.90;;;18.90;39.30;;;;;;5115060;28;20424;-58
2022/01/21 04:39:05;;;;;;;1.80;1.08;;;19.00;39.20;;;;;;5096877;28;20020;-58
2022/01/21 04:49:28;;;;;;;1.90;1.15;;;19.20;38.90;;;;;;5115069;28;20121;-57
2022/01/21 04:52:03;;;;;;;2.38;0.98;;;19.30;38.80;;;;;;5096941;28;20116;-57
2022/01/21 04:54:33;;;;;;;1.98;0.90;;;19.30;38.70;;;;;;5114933;28;20008;-56
2022/01/21 04:56:59;;;;;;;2.28;1.25;;;19.30;38.60;;;;;;5115001;28;20003;-56
2022/01/21 04:59:25;;;;;;;2.60;1.00;;;19.40;38.60;;;;;;5114529;28;20485;-56
2022/01/21 05:01:52;;;;;;;1.73;1.00;;;19.50;38.50;;;;;;5114822;28;20492;-57
2022/01/21 05:04:19;;;;;;;2.42;1.17;;;19.50;38.40;;;;;;5114409;28;20491;-57
2022/01/21 05:06:45;;;;;;;1.67;0.85;;;19.60;38.40;;;;;;5114697;28;20023;-56
2022/01/21 05:09:10;;;;;;;2.80;0.98;;;19.60;38.30;;;;;;5114065;28;20046;-58
2022/01/21 05:11:38;;;;;;;2.35;1.10;;;19.70;38.30;;;;;;5096057;28;20470;-56
2022/01/21 05:14:18;;;;;;;1.77;1.10;;;19.70;38.20;;;;;;5096534;28;20081;-57
2022/01/21 05:16:50;;;;;;;1.95;1.10;;;19.80;38.00;;;;;;5114580;28;20020;-57
2022/01/21 05:19:17;;;;;;;0.80;0.70;;;19.90;38.00;;;;;;5114366;28;20076;-58
2022/01/21 05:21:43;;;;;;;1.70;1.02;;;19.90;37.90;;;;;;5114027;28;20424;-57
2022/01/21 05:24:10;;;;;;;1.90;1.00;;;20.00;37.80;;;;;;5114422;28;20011;-57
2022/01/21 05:26:38;;;;;;;1.75;1.10;;;20.00;37.80;;;;;;5114246;28;20019;-57
2022/01/21 05:29:09;;;;;;;1.48;0.93;;;20.10;37.80;;;;;;5114315;28;20026;-57
2022/01/21 05:31:34;;;;;;;2.90;1.10;;;20.20;37.70;;;;;;5114331;28;20054;-57
2022/01/21 05:34:01;;;;;;;3.08;1.20;;;20.20;37.60;;;;;;5114181;28;20531;-55
2022/01/21 05:36:27;;;;;;;1.35;0.80;;;20.20;37.50;;;;;;5114409;28;20015;-56
2022/01/21 05:38:54;;;;;;;1.85;1.17;;;20.20;37.50;;;;;;5114181;28;20012;-57
2022/01/21 05:41:23;;;;;;;1.55;1.00;;;20.30;37.50;;;;;;5114015;28;20020;-55
2022/01/21 05:43:50;;;;;;;1.27;0.68;;;20.30;37.40;;;;;;5113288;28;20474;-56
2022/01/21 05:48:59;;;;;;;1.92;0.93;;;20.40;37.30;;;;;;5113943;28;20039;-55
2022/01/21 05:51:25;;;;;;;1.65;0.90;;;20.50;37.20;;;;;;5113993;28;20027;-56
2022/01/21 05:53:51;;;;;;;1.73;0.90;;;20.50;37.20;;;;;;5114124;28;20355;-56
2022/01/21 05:56:17;;;;;;;2.80;1.20;;;20.60;37.10;;;;;;5113689;28;20450;-55
2022/01/21 05:58:42;;;;;;;2.17;0.85;;;20.60;37.00;;;;;;5078833;28;20028;-56
2022/01/21 06:01:08;;;;;;;2.33;0.65;;;20.60;37.00;;;;;;5095714;28;20137;-56
2022/01/21 06:03:34;;;;;;;1.35;0.73;;;20.70;37.00;;;;;;5078903;28;20099;-56
2022/01/21 06:06:00;;;;;;;1.20;0.70;;;20.70;36.90;;;;;;5095324;28;20462;-54
2022/01/21 06:08:26;;;;;;;1.88;0.80;;;20.80;36.80;;;;;;5113215;28;20069;-55
2022/01/21 06:10:53;;;;;;;1.52;0.88;;;20.80;36.80;;;;;;5113550;28;20015;-55
2022/01/21 06:13:20;;;;;;;2.03;0.90;;;20.90;36.70;;;;;;5113690;28;20042;-56
2022/01/21 06:15:46;;;;;;;2.47;1.10;;;20.90;36.70;;;;;;5113366;28;20012;-55
2022/01/21 06:18:12;;;;;;;2.55;1.10;;;20.90;36.70;;;;;;5095720;28;20081;-55
2022/01/21 06:20:38;;;;;;;1.50;0.82;;;21.00;36.60;;;;;;5113415;28;20462;-55
2022/01/21 06:23:04;;;;;;;3.55;0.90;;;21.10;36.60;;;;;;5113498;28;20016;-56
2022/01/21 06:25:30;;;;;;;0.80;0.60;;;21.10;36.50;;;;;;5113546;28;20018;-55
2022/01/21 06:27:57;;;;;;;1.50;0.80;;;21.10;36.50;;;;;;5113604;28;20035;-56
2022/01/21 06:30:23;;;;;;;1.67;0.93;;;21.10;36.50;;;;;;5113220;28;20024;-56
2022/01/21 06:32:51;;;;;;;0.88;0.65;;;21.10;36.40;;;;;;5113194;28;20050;-55
2022/01/21 06:35:17;;;;;;;1.88;0.93;;;21.20;36.40;;;;;;5113134;28;20473;-55
2022/01/21 06:37:43;;;;;;;4.53;1.20;;;21.20;36.00;;;;;;5095247;28;20030;-55
2022/01/21 06:40:09;;;;;;;4.18;1.65;;;21.00;35.70;;;;;;5113152;28;20049;-55
2022/01/21 06:42:36;;;;;;;11.65;2.50;;;20.90;35.20;;;;;;5113437;28;20031;-55
2022/01/21 06:45:02;;;;;;;8.23;2.17;;;20.80;34.90;;;;;;5113606;28;20089;-55
2022/01/21 06:47:29;;;;;;;5.35;1.90;;;20.60;34.50;;;;;;5113301;28;20086;-55
2022/01/21 06:49:58;;;;;;;7.68;2.15;;;20.60;34.30;;;;;;5078255;28;20081;-55
2022/01/21 06:52:30;;;;;;;9.45;2.30;;;20.50;34.20;;;;;;5094683;28;20016;-55
2022/01/21 06:54:56;;;;;;;9.05;2.60;;;20.40;34.10;;;;;;5112816;28;20008;-55
2022/01/21 06:57:22;;;;;;;9.40;2.40;;;20.40;34.00;;;;;;5115407;28;20023;-56
2022/01/21 06:59:48;;;;;;;8.60;2.40;;;20.40;34.00;;;;;;5098220;28;20016;-55
2022/01/21 07:02:14;;;;;;;6.63;2.47;;;20.40;33.90;;;;;;5116332;28;20119;-56
2022/01/21 07:04:40;;;;;;;11.02;2.67;;;20.30;33.80;;;;;;5115757;28;20008;-57
2022/01/21 07:07:06;;;;;;;9.73;2.38;;;20.30;33.80;;;;;;5097619;28;20095;-54
2022/01/21 07:09:33;;;;;;;10.93;2.92;;;20.30;33.80;;;;;;5115751;28;20032;-57
2022/01/21 07:11:59;;;;;;;10.90;2.33;;;20.30;33.70;;;;;;5116595;28;20020;-56
2022/01/21 07:14:24;;;;;;;9.98;2.92;;;20.20;33.70;;;;;;5080863;28;20008;-54
2022/01/21 07:16:50;;;;;;;7.38;2.95;;;20.20;33.60;;;;;;5115509;28;20015;-55
2022/01/21 07:19:16;;;;;;;9.38;2.67;;;20.20;33.70;;;;;;5115623;28;20049;-56
2022/01/21 07:21:42;;;;;;;12.32;3.40;;;20.20;33.60;;;;;;5113448;28;20036;-55
2022/01/21 07:24:09;;;;;;;17.17;4.20;;;20.20;35.50;;;;;;5096846;28;20027;-55
2022/01/21 07:26:34;;;;;;;17.58;3.35;;;20.20;36.80;;;;;;5115451;28;20145;-59
2022/01/21 07:29:05;;;;;;;34.55;3.45;;;20.20;37.70;;;;;;5097109;28;20110;-60
2022/01/21 07:31:36;;;;;;;15.63;3.67;;;20.30;38.20;;;;;;5115715;28;20023;-59
2022/01/21 07:34:05;;;;;;;17.30;3.75;;;20.40;38.30;;;;;;5098564;28;20045;-57
2022/01/21 07:36:34;;;;;;;15.30;4.35;;;20.40;38.20;;;;;;5115461;28;20046;-55
2022/01/21 07:39:03;;;;;;;13.23;3.58;;;20.50;38.10;;;;;;5115444;28;20015;-63
2022/01/21 07:41:31;;;;;;;8.35;3.38;;;20.50;38.00;;;;;;5097173;28;20114;-58
2022/01/21 07:44:00;;;;;;;13.25;4.47;;;20.60;38.00;;;;;;5096992;28;20023;-57
2022/01/21 07:46:28;;;;;;;12.05;4.25;;;20.50;36.90;;;;;;5115374;28;20023;-55
2022/01/21 07:48:56;;;;;;;15.98;4.65;;;20.20;37.00;;;;;;5115064;28;20525;-60
2022/01/21 07:51:25;;;;;;;16.13;4.68;;;19.90;38.10;;;;;;5097740;28;20016;-61
2022/01/21 07:53:57;;;;;;;16.27;5.15;;;19.80;37.90;;;;;;5115352;28;20004;-56
2022/01/21 07:56:25;;;;;;;13.38;4.95;;;19.60;38.10;;;;;;5115112;28;20466;-57
2022/01/21 07:58:51;;;;;;;13.45;4.25;;;19.50;38.30;;;;;;5096853;28;20478;-57
2022/01/21 08:01:17;;;;;;;15.20;5.38;;;19.30;38.20;;;;;;5096774;28;20030;-58
2022/01/21 08:03:43;;;;;;;12.48;4.13;;;19.30;38.10;;;;;;5115279;28;20011;-57
2022/01/21 08:06:08;;;;;;;13.88;5.25;;;19.40;38.00;;;;;;5115102;28;20022;-58
2022/01/21 08:08:36;;;;;;;9.30;4.15;;;19.40;37.80;;;;;;5113444;28;20040;-59
2022/01/21 08:11:02;;;;;;;9.85;3.90;;;19.20;37.70;;;;;;5115164;28;20023;-58
2022/01/21 08:13:28;;;;;;;12.88;5.20;;;19.20;37.80;;;;;;5114597;28;20086;-57
2022/01/21 08:15:54;;;;;;;12.27;4.10;;;19.40;37.80;;;;;;5114008;28;20019;-57
2022/01/21 08:18:23;;;;;;;10.18;3.88;;;19.40;37.10;;;;;;5095415;28;20012;-58
2022/01/21 08:20:48;;;;;;;9.95;3.83;;;19.40;36.50;;;;;;5095925;28;20012;-57
2022/01/21 08:23:16;;;;;;;8.48;3.53;;;19.30;36.20;;;;;;5078869;28;20157;-55
2022/01/21 08:25:44;;;;;;;8.82;3.33;;;19.20;36.10;;;;;;5114798;28;20037;-55
2022/01/21 08:28:10;;;;;;;8.77;3.35;;;19.00;36.00;;;;;;5096099;28;20037;-57
2022/01/21 08:30:38;;;;;;;8.02;3.53;;;19.00;36.50;;;;;;5114457;28;20377;-56
2022/01/21 08:33:03;;;;;;;12.02;3.20;;;18.90;36.00;;;;;;5096028;28;20011;-56
2022/01/21 08:35:29;;;;;;;7.28;2.78;;;18.90;35.80;;;;;;5114807;28;20153;-55
2022/01/21 08:37:58;;;;;;;12.68;3.75;;;18.80;35.90;;;;;;5114156;28;20026;-55
2022/01/21 08:40:29;;;;;;;9.50;3.05;;;18.80;35.70;;;;;;5114589;28;20016;-57
2022/01/21 08:42:54;;;;;;;14.27;3.58;;;18.70;35.80;;;;;;5114580;28;20038;-55
2022/01/21 08:45:21;;;;;;;8.60;2.90;;;18.70;36.00;;;;;;5095692;28;20019;-56
2022/01/21 08:47:47;;;;;;;9.52;2.97;;;18.60;35.80;;;;;;5113982;28;20521;-56
2022/01/21 08:50:17;;;;;;;16.30;3.30;;;18.70;35.90;;;;;;5095081;28;20390;-57
2022/01/21 08:52:44;;;;;;;10.80;2.65;;;18.70;35.80;;;;;;5095966;28;20039;-61
2022/01/21 08:55:13;;;;;;;9.82;3.05;;;18.70;35.70;;;;;;5113705;28;20024;-57
2022/01/21 08:57:43;;;;;;;10.23;2.67;;;18.60;35.60;;;;;;5078060;28;20026;-56
2022/01/21 09:03:33;;;;;;;9.70;2.88;;;18.70;35.80;;;;;;5019932;28;20131;-57
2022/01/21 09:05:59;;;;;;;9.10;2.78;;;18.60;35.70;;;;;;5095900;28;20015;-56
2022/01/21 09:08:28;;;;;;;13.85;3.33;;;18.70;35.70;;;;;;5113395;28;20439;-57
2022/01/21 09:10:54;;;;;;;9.20;2.60;;;18.90;35.40;;;;;;5113710;28;20023;-58
2022/01/21 09:13:21;;;;;;;11.25;3.00;;;19.20;35.00;;;;;;5095532;28;20026;-58
2022/01/21 09:15:47;;;;;;;10.77;3.13;;;19.50;34.70;;;;;;5112630;28;20015;-57
2022/01/21 09:18:18;;;;;;;7.53;2.72;;;19.70;34.30;;;;;;5112264;28;20385;-57
2022/01/21 09:20:45;;;;;;;11.82;3.30;;;19.70;34.30;;;;;;5112153;28;20049;-56
2022/01/21 09:23:11;;;;;;;8.38;3.55;;;19.50;34.70;;;;;;5094861;28;20512;-57
2022/01/21 09:25:37;;;;;;;15.63;3.63;;;19.40;34.90;;;;;;5094865;28;20011;-57
2022/01/21 09:28:03;;;;;;;12.60;3.90;;;19.30;35.10;;;;;;5112834;28;20019;-56
2022/01/21 09:30:32;;;;;;;8.13;3.65;;;19.20;35.40;;;;;;5093849;28;20043;-57
2022/01/21 09:33:00;;;;;;;8.63;3.30;;;19.20;35.50;;;;;;5113301;28;20011;-60
2022/01/21 09:35:26;;;;;;;14.48;4.28;;;19.10;35.60;;;;;;5113312;28;20050;-59
2022/01/21 09:37:53;;;;;;;9.13;3.08;;;19.00;35.70;;;;;;5095203;28;20023;-64
2022/01/21 09:40:23;;;;;;;10.13;3.28;;;19.00;35.80;;;;;;5095824;28;20070;-59
2022/01/21 09:42:52;;;;;;;12.93;4.03;;;19.00;35.80;;;;;;5079667;28;20020;-59
2022/01/21 09:45:22;;;;;;;9.45;3.25;;;19.10;35.90;;;;;;5113721;28;20077;-60
2022/01/21 09:47:52;;;;;;;9.88;3.20;;;19.10;35.80;;;;;;5114108;28;20015;-59
2022/01/21 09:50:20;;;;;;;11.70;3.78;;;19.00;35.90;;;;;;5114064;28;20036;-60
2022/01/21 09:52:49;;;;;;;11.15;3.35;;;19.10;36.00;;;;;;5114267;28;20015;-59
2022/01/21 09:55:20;;;;;;;9.50;3.20;;;19.10;36.20;;;;;;5113437;28;20377;-58
2022/01/21 09:57:50;;;;;;;8.63;3.28;;;19.00;36.10;;;;;;5095614;28;20094;-59
2022/01/21 10:00:22;;;;;;;10.77;3.05;;;19.00;36.00;;;;;;5095330;28;20035;-58
2022/01/21 10:02:48;;;;;;;12.77;3.58;;;19.00;36.00;;;;;;5093852;28;20027;-59
2022/01/21 10:05:14;;;;;;;11.63;3.65;;;19.00;36.00;;;;;;5112415;28;20481;-59
2022/01/21 10:07:44;;;;;;;8.95;3.05;;;19.00;36.10;;;;;;5112177;28;20177;-57
2022/01/21 10:10:10;;;;;;;12.75;3.05;;;18.90;36.40;;;;;;5093474;28;20093;-57
2022/01/21 10:12:38;;;;;;;11.10;3.45;;;18.60;36.70;;;;;;5112621;28;20008;-59
2022/01/21 10:15:04;;;;;;;24.02;4.95;;;18.40;37.50;;;;;;5112555;28;20015;-58
2022/01/21 10:17:33;;;;;;;11.27;3.53;;;18.60;38.10;;;;;;5094605;28;20415;-56
2022/01/21 10:20:12;;;;;;;12.10;3.40;;;18.80;37.80;;;;;;5094877;28;20125;-57
2022/01/21 10:22:38;;;;;;;13.27;3.58;;;19.20;37.60;;;;;;5112838;28;20042;-59
2022/01/21 10:25:12;;;;;;;12.15;3.30;;;19.50;37.30;;;;;;5112524;28;20019;-57
2022/01/21 10:27:46;;;;;;;11.55;3.75;;;19.60;37.00;;;;;;5112343;28;20020;-57
2022/01/21 10:30:22;;;;;;;9.05;3.40;;;19.50;37.10;;;;;;5112652;28;20024;-58
2022/01/21 10:32:51;;;;;;;9.43;3.08;;;19.30;37.30;;;;;;5116627;28;20129;-58
2022/01/21 10:35:36;;;;;;;11.60;3.30;;;19.10;37.90;;;;;;5081758;28;20020;-58
2022/01/21 10:38:29;;;;;;;12.63;3.28;;;19.10;38.30;;;;;;5116941;28;20100;-59
2022/01/21 10:41:06;;;;;;;15.63;3.00;;;19.10;38.40;;;;;;5116821;28;20027;-58
2022/01/21 10:43:32;;;;;;;8.68;2.90;;;18.90;38.70;;;;;;5098585;28;20016;-60
2022/01/21 10:46:02;;;;;;;9.15;2.67;;;19.10;38.60;;;;;;5116459;28;20019;-56
2022/01/21 10:48:59;;;;;;;9.30;2.78;;;19.40;38.30;;;;;;5116462;28;20047;-59
2022/01/21 10:51:36;;;;;;;9.43;3.30;;;19.70;37.70;;;;;;5116562;28;20145;-58
2022/01/21 10:54:20;;;;;;;8.60;2.60;;;20.00;37.50;;;;;;5083297;28;20044;-58
2022/01/21 10:57:05;;;;;;;9.18;2.90;;;20.20;37.30;;;;;;5115926;28;20019;-57
2022/01/21 10:59:54;;;;;;;19.88;3.10;;;20.30;37.40;;;;;;5116686;28;20023;-57
2022/01/21 11:02:53;;;;;;;13.93;3.15;;;20.30;37.30;;;;;;5116891;28;20359;-58
2022/01/21 11:05:25;;;;;;;15.68;2.67;;;20.40;37.10;;;;;;5117332;28;20016;-59
2022/01/21 11:08:04;;;;;;;19.17;3.17;;;20.50;37.00;;;;;;5117305;28;20130;-59
2022/01/21 11:10:36;;;;;;;13.30;3.03;;;20.70;36.90;;;;;;5116676;28;20023;-59
2022/01/21 11:13:01;;;;;;;11.20;2.70;;;20.70;36.60;;;;;;5116050;28;20474;-62
2022/01/21 11:15:45;;;;;;;17.63;2.90;;;20.80;36.50;;;;;;5098353;28;20023;-59
2022/01/21 11:18:15;;;;;;;10.73;2.67;;;20.90;36.50;;;;;;5116640;28;20049;-58
2022/01/21 11:20:41;;;;;;;11.50;2.75;;;20.90;36.40;;;;;;5116550;28;20020;-57
2022/01/21 11:23:11;;;;;;;11.80;2.92;;;21.00;36.40;;;;;;5116602;28;20020;-58
2022/01/21 11:25:51;;;;;;;9.27;2.80;;;21.20;36.20;;;;;;5116533;28;20007;-57
2022/01/21 11:28:17;;;;;;;11.98;2.40;;;21.20;36.00;;;;;;5116146;28;20012;-57
2022/01/21 11:30:45;;;;;;;9.95;2.78;;;21.20;36.10;;;;;;5099970;28;20015;-55
2022/01/21 11:33:11;;;;;;;7.85;2.75;;;21.30;36.10;;;;;;5116008;28;20015;-57
2022/01/21 11:35:37;;;;;;;12.82;3.33;;;21.20;36.10;;;;;;5116419;28;20045;-57
2022/01/21 11:38:07;;;;;;;9.75;2.78;;;21.30;36.20;;;;;;5115519;28;20378;-57
2022/01/21 11:40:33;;;;;;;9.30;2.60;;;21.30;36.20;;;;;;5115814;28;20020;-57
2022/01/21 11:42:59;;;;;;;8.40;2.60;;;21.20;36.10;;;;;;5114556;28;20023;-57
2022/01/21 11:50:41;;;;;;;12.85;2.90;;;19.20;39.50;;;;;;5100352;28;20077;-58
2022/01/21 11:53:08;;;;;;;11.38;3.75;;;19.00;40.40;;;;;;5115996;28;20016;-56
2022/01/21 11:55:45;;;;;;;10.63;3.28;;;18.70;41.40;;;;;;5097396;28;20020;-53
2022/01/21 11:58:21;;;;;;;12.88;3.25;;;18.30;41.90;;;;;;5115346;28;20090;-55
2022/01/21 12:00:51;;;;;;;9.30;2.95;;;18.50;42.50;;;;;;5096947;28;20007;-53
2022/01/21 12:03:23;;;;;;;9.07;3.30;;;18.60;41.80;;;;;;5113871;28;20012;-55
2022/01/21 12:05:49;;;;;;;11.40;3.55;;;18.40;43.10;;;;;;5114209;28;20057;-56
2022/01/21 12:08:15;;;;;;;8.98;3.17;;;18.30;43.00;;;;;;5113706;28;20035;-54
2022/01/21 12:10:42;;;;;;;12.00;2.67;;;18.60;42.50;;;;;;5113386;28;20035;-55
2022/01/21 12:13:16;;;;;;;11.10;3.13;;;18.70;42.20;;;;;;5113739;28;20012;-53
2022/01/21 12:20:52;;;;;;;11.68;3.20;;;16.70;45.40;;;;;;5113613;28;20055;-52
2022/01/21 12:23:22;;;;;;;9.05;2.95;;;16.00;48.60;;;;;;5095040;28;20472;-52
2022/01/21 12:26:27;;;;;;;9.50;3.33;;;16.30;47.70;;;;;;5094208;28;20016;-50
2022/01/21 12:28:53;;;;;;;8.30;2.67;;;16.20;47.30;;;;;;5010494;28;20017;-50
2022/01/21 12:31:20;;;;;;;10.15;3.17;;;15.90;48.20;;;;;;5010528;28;20030;-50
2022/01/21 12:33:56;;;;;;;6.95;2.63;;;15.40;49.20;;;;;;5010400;28;20026;-49
2022/01/21 12:36:25;;;;;;;10.02;2.80;;;15.80;49.60;;;;;;5010199;28;20072;-52
2022/01/21 12:41:20;;;;;;;14.65;3.95;;;16.00;49.30;;;;;;5010866;28;20141;-57
2022/01/21 12:43:47;;;;;;;11.98;3.53;;;15.50;49.90;;;;;;5011771;28;20026;-48
2022/01/21 12:46:16;;;;;;;19.60;3.45;;;16.30;49.20;;;;;;4996148;28;20038;-51
2022/01/21 12:48:46;;;;;;;18.58;3.85;;;17.20;48.00;;;;;;5013281;28;20206;-53
2022/01/21 12:51:14;;;;;;;20.35;3.70;;;18.10;46.60;;;;;;5013938;28;20055;-51
2022/01/21 12:55:55;;;;;;;13.35;2.88;;;18.80;45.20;;;;;;5012798;28;20068;-53
2022/01/21 12:56:30;;;;;;;19.48;3.05;;;19.40;44.00;;;;;;5012418;28;20454;-54
2022/01/21 12:58:57;;;;;;;16.55;3.38;;;19.90;43.20;;;;;;5020081;28;20023;-54
2022/01/21 13:01:25;;;;;;;13.63;3.53;;;20.20;42.40;;;;;;5116545;28;20027;-52
2022/01/21 13:03:54;;;;;;;11.00;3.03;;;20.50;41.90;;;;;;5117105;28;20019;-50
2022/01/21 13:06:36;;;;;;;16.13;3.28;;;20.60;42.00;;;;;;5115507;28;20008;-54
2022/01/21 13:09:08;;;;;;;11.63;3.38;;;20.80;41.50;;;;;;5115572;28;20043;-51
2022/01/21 13:11:36;;;;;;;9.20;2.50;;;21.00;41.20;;;;;;5115124;28;20042;-48
2022/01/21 13:17:04;;;;;;;9.52;2.75;;;21.30;40.80;;;;;;5115602;28;20045;-58
2022/01/21 13:19:33;;;;;;;10.30;3.00;;;21.50;40.60;;;;;;5114994;28;20019;-59
2022/01/21 13:21:59;;;;;;;14.73;2.83;;;21.60;40.30;;;;;;5114443;28;20043;-58
2022/01/21 13:24:30;;;;;;;8.95;2.95;;;21.60;40.50;;;;;;5078872;28;20027;-60
2022/01/21 13:26:56;;;;;;;18.30;3.55;;;21.70;40.70;;;;;;5112813;28;20059;-59
2022/01/21 13:29:34;;;;;;;15.20;3.22;;;21.70;40.70;;;;;;5112897;28;20024;-59
2022/01/21 13:32:01;;;;;;;11.18;3.30;;;21.30;40.30;;;;;;5114300;28;20016;-59
2022/01/21 13:34:31;;;;;;;13.80;2.95;;;20.70;40.30;;;;;;5114581;28;20096;-58
2022/01/21 13:37:04;;;;;;;18.10;3.80;;;20.50;40.70;;;;;;5095864;28;20114;-57
2022/01/21 13:39:34;;;;;;;9.45;3.15;;;20.40;40.30;;;;;;5114434;28;20019;-58
2022/01/21 13:42:09;;;;;;;10.77;3.40;;;20.30;40.90;;;;;;5114586;28;20031;-60
2022/01/21 13:44:50;;;;;;;15.50;3.25;;;19.90;41.00;;;;;;5115160;28;20020;-58
2022/01/21 13:47:32;;;;;;;;;;;19.40;41.10;;;;;;5097012;28;20129;-56
2022/01/21 13:50:09;;;;;;;41.83;4.53;;;18.90;41.60;;;;;;5114044;28;19908;-61
2022/01/21 13:52:54;;;;;;;16.35;3.13;;;18.50;42.30;;;;;;5113877;28;20024;-60
2022/01/21 13:55:41;;;;;;;21.27;3.47;;;18.40;42.20;;;;;;5095418;28;20018;-58
2022/01/21 13:58:19;;;;;;;16.27;2.72;;;18.70;41.90;;;;;;5114109;28;20045;-59